sensor_id;sensor_type;location;lat;lon;timestamp;temperature;humidity
48988;DHT22;34799;51.440;-2.534;2023-10-31T00:01:58;10.90;99.90
48988;DHT22;34799;51.440;-2.534;2023-10-31T00:04:25;10.90;99.90
48988;DHT22;34799;51.440;-2.534;2023-10-31T00:06:53;10.90;99.90
48988;DHT22;34799;51.440;-2.534;2023-10-31T00:09:21;10.90;99.90
48988;DHT22;34799;51.440;-2.534;2023-10-31T00:11:50;10.90;99.90
48988;DHT22;34799;51.440;-2.534;2023-10-31T00:14:18;10.80;99.90
48988;DHT22;34799;51.440;-2.534;2023-10-31T00:16:46;10.90;99.90
48988;DHT22;34799;51.440;-2.534;2023-10-31T00:19:15;10.80;99.90
48988;DHT22;34799;51.440;-2.534;2023-10-31T00:21:43;10.80;99.90
48988;DHT22;34799;51.440;-2.534;2023-10-31T00:24:11;10.80;99.90
48988;DHT22;34799;51.440;-2.534;2023-10-31T00:26:39;10.80;99.90
48988;DHT22;34799;51.440;-2.534;2023-10-31T00:29:08;10.80;99.90
48988;DHT22;34799;51.440;-2.534;2023-10-31T00:31:36;10.80;99.90
48988;DHT22;34799;51.440;-2.534;2023-10-31T00:34:08;10.80;99.90
48988;DHT22;34799;51.440;-2.534;2023-10-31T00:36:36;10.40;99.90
48988;DHT22;34799;51.440;-2.534;2023-10-31T00:39:03;10.90;99.90
48988;DHT22;34799;51.440;-2.534;2023-10-31T00:41:31;10.90;99.90
48988;DHT22;34799;51.440;-2.534;2023-10-31T00:43:59;10.90;99.90
48988;DHT22;34799;51.440;-2.534;2023-10-31T00:46:28;10.90;99.90
48988;DHT22;34799;51.440;-2.534;2023-10-31T00:48:56;10.90;99.90
48988;DHT22;34799;51.440;-2.534;2023-10-31T00:51:24;10.90;99.90
48988;DHT22;34799;51.440;-2.534;2023-10-31T00:53:52;10.90;99.90
48988;DHT22;34799;51.440;-2.534;2023-10-31T00:56:22;10.90;99.90
48988;DHT22;34799;51.440;-2.534;2023-10-31T00:58:52;10.90;99.90
48988;DHT22;34799;51.440;-2.534;2023-10-31T01:01:19;10.90;99.90
48988;DHT22;34799;51.440;-2.534;2023-10-31T01:03:47;10.90;99.90
48988;DHT22;34799;51.440;-2.534;2023-10-31T01:06:15;10.90;99.90
48988;DHT22;34799;51.440;-2.534;2023-10-31T01:08:43;10.90;99.90
48988;DHT22;34799;51.440;-2.534;2023-10-31T01:11:12;11.00;99.90
48988;DHT22;34799;51.440;-2.534;2023-10-31T01:13:40;11.00;99.90
48988;DHT22;34799;51.440;-2.534;2023-10-31T01:16:08;11.00;99.90
48988;DHT22;34799;51.440;-2.534;2023-10-31T01:18:37;11.00;99.90
48988;DHT22;34799;51.440;-2.534;2023-10-31T01:21:05;11.00;99.90
48988;DHT22;34799;51.440;-2.534;2023-10-31T01:23:33;11.00;99.90
48988;DHT22;34799;51.440;-2.534;2023-10-31T01:26:00;11.00;99.90
48988;DHT22;34799;51.440;-2.534;2023-10-31T01:28:27;11.10;99.90
48988;DHT22;34799;51.440;-2.534;2023-10-31T01:30:54;11.00;99.90
48988;DHT22;34799;51.440;-2.534;2023-10-31T01:33:21;11.10;99.90
48988;DHT22;34799;51.440;-2.534;2023-10-31T01:35:49;11.10;99.90
48988;DHT22;34799;51.440;-2.534;2023-10-31T01:38:18;11.10;99.90
48988;DHT22;34799;51.440;-2.534;2023-10-31T01:40:49;11.10;99.90
48988;DHT22;34799;51.440;-2.534;2023-10-31T01:43:36;11.10;99.90
48988;DHT22;34799;51.440;-2.534;2023-10-31T01:46:04;11.10;99.90
48988;DHT22;34799;51.440;-2.534;2023-10-31T01:48:32;11.00;99.90
48988;DHT22;34799;51.440;-2.534;2023-10-31T01:51:01;11.10;99.90
48988;DHT22;34799;51.440;-2.534;2023-10-31T01:53:32;11.10;99.90
48988;DHT22;34799;51.440;-2.534;2023-10-31T01:56:04;11.10;99.90
48988;DHT22;34799;51.440;-2.534;2023-10-31T01:58:37;11.10;99.90
48988;DHT22;34799;51.440;-2.534;2023-10-31T02:01:04;11.10;99.90
48988;DHT22;34799;51.440;-2.534;2023-10-31T02:03:32;11.20;99.90
48988;DHT22;34799;51.440;-2.534;2023-10-31T02:06:00;11.40;99.90
48988;DHT22;34799;51.440;-2.534;2023-10-31T02:08:27;11.20;99.90
48988;DHT22;34799;51.440;-2.534;2023-10-31T02:10:54;11.20;99.90
48988;DHT22;34799;51.440;-2.534;2023-10-31T02:13:22;11.30;99.90
48988;DHT22;34799;51.440;-2.534;2023-10-31T02:15:50;11.30;99.90
48988;DHT22;34799;51.440;-2.534;2023-10-31T02:18:18;11.30;99.90
48988;DHT22;34799;51.440;-2.534;2023-10-31T02:20:48;11.30;99.90
48988;DHT22;34799;51.440;-2.534;2023-10-31T02:23:16;11.30;99.90
48988;DHT22;34799;51.440;-2.534;2023-10-31T02:25:43;11.40;99.90
48988;DHT22;34799;51.440;-2.534;2023-10-31T02:28:11;11.30;99.90
48988;DHT22;34799;51.440;-2.534;2023-10-31T02:30:41;11.40;99.90
48988;DHT22;34799;51.440;-2.534;2023-10-31T02:33:09;11.40;99.90
48988;DHT22;34799;51.440;-2.534;2023-10-31T02:35:37;11.30;99.90
48988;DHT22;34799;51.440;-2.534;2023-10-31T02:38:05;11.30;99.90
48988;DHT22;34799;51.440;-2.534;2023-10-31T02:40:34;11.30;99.90
48988;DHT22;34799;51.440;-2.534;2023-10-31T02:43:02;11.30;99.90
48988;DHT22;34799;51.440;-2.534;2023-10-31T02:45:30;11.40;99.90
48988;DHT22;34799;51.440;-2.534;2023-10-31T02:48:00;11.40;99.90
48988;DHT22;34799;51.440;-2.534;2023-10-31T02:50:28;11.40;99.90
48988;DHT22;34799;51.440;-2.534;2023-10-31T02:52:56;11.40;99.90
48988;DHT22;34799;51.440;-2.534;2023-10-31T02:55:23;11.40;99.90
48988;DHT22;34799;51.440;-2.534;2023-10-31T02:57:51;11.40;99.90
48988;DHT22;34799;51.440;-2.534;2023-10-31T03:00:19;11.30;99.90
48988;DHT22;34799;51.440;-2.534;2023-10-31T03:02:47;11.40;99.90
48988;DHT22;34799;51.440;-2.534;2023-10-31T03:05:15;11.40;99.90
48988;DHT22;34799;51.440;-2.534;2023-10-31T03:07:43;11.40;99.90
48988;DHT22;34799;51.440;-2.534;2023-10-31T03:10:12;11.40;99.90
48988;DHT22;34799;51.440;-2.534;2023-10-31T03:12:39;11.60;99.90
48988;DHT22;34799;51.440;-2.534;2023-10-31T03:15:06;11.60;99.90
48988;DHT22;34799;51.440;-2.534;2023-10-31T03:17:34;11.40;99.90
48988;DHT22;34799;51.440;-2.534;2023-10-31T03:20:01;11.50;99.90
48988;DHT22;34799;51.440;-2.534;2023-10-31T03:22:29;11.50;99.90
48988;DHT22;34799;51.440;-2.534;2023-10-31T03:24:57;11.50;99.90
48988;DHT22;34799;51.440;-2.534;2023-10-31T03:27:24;11.50;99.90
48988;DHT22;34799;51.440;-2.534;2023-10-31T03:29:52;11.50;99.90
48988;DHT22;34799;51.440;-2.534;2023-10-31T03:32:20;11.80;99.90
48988;DHT22;34799;51.440;-2.534;2023-10-31T03:34:48;11.90;99.90
48988;DHT22;34799;51.440;-2.534;2023-10-31T03:37:15;11.70;99.90
48988;DHT22;34799;51.440;-2.534;2023-10-31T03:39:42;11.80;99.90
48988;DHT22;34799;51.440;-2.534;2023-10-31T03:42:09;11.50;99.90
48988;DHT22;34799;51.440;-2.534;2023-10-31T03:44:36;11.90;99.90
48988;DHT22;34799;51.440;-2.534;2023-10-31T03:47:04;11.40;99.90
48988;DHT22;34799;51.440;-2.534;2023-10-31T03:49:32;11.40;99.90
48988;DHT22;34799;51.440;-2.534;2023-10-31T03:52:00;11.40;99.90
48988;DHT22;34799;51.440;-2.534;2023-10-31T03:54:28;11.40;99.90
48988;DHT22;34799;51.440;-2.534;2023-10-31T03:56:56;11.30;99.90
48988;DHT22;34799;51.440;-2.534;2023-10-31T03:59:24;11.30;99.90
48988;DHT22;34799;51.440;-2.534;2023-10-31T04:01:52;11.30;99.90
48988;DHT22;34799;51.440;-2.534;2023-10-31T04:04:20;11.30;99.90
48988;DHT22;34799;51.440;-2.534;2023-10-31T04:06:48;11.60;99.90
48988;DHT22;34799;51.440;-2.534;2023-10-31T04:09:16;11.30;99.90
48988;DHT22;34799;51.440;-2.534;2023-10-31T04:11:43;11.30;99.90
48988;DHT22;34799;51.440;-2.534;2023-10-31T04:14:10;11.20;99.90
48988;DHT22;34799;51.440;-2.534;2023-10-31T04:16:39;11.20;99.90
48988;DHT22;34799;51.440;-2.534;2023-10-31T04:19:06;11.10;99.90
48988;DHT22;34799;51.440;-2.534;2023-10-31T04:21:33;11.10;99.90
48988;DHT22;34799;51.440;-2.534;2023-10-31T04:24:01;11.00;99.90
48988;DHT22;34799;51.440;-2.534;2023-10-31T04:26:29;11.00;99.90
48988;DHT22;34799;51.440;-2.534;2023-10-31T04:28:57;10.90;99.90
48988;DHT22;34799;51.440;-2.534;2023-10-31T04:31:26;10.90;99.90
48988;DHT22;34799;51.440;-2.534;2023-10-31T04:33:54;10.90;99.90
48988;DHT22;34799;51.440;-2.534;2023-10-31T04:36:23;10.80;99.90
48988;DHT22;34799;51.440;-2.534;2023-10-31T04:38:51;10.80;99.90
48988;DHT22;34799;51.440;-2.534;2023-10-31T04:41:18;10.80;99.90
48988;DHT22;34799;51.440;-2.534;2023-10-31T04:43:46;11.00;99.90
48988;DHT22;34799;51.440;-2.534;2023-10-31T04:46:14;10.90;99.90
48988;DHT22;34799;51.440;-2.534;2023-10-31T04:48:42;10.80;99.90
48988;DHT22;34799;51.440;-2.534;2023-10-31T04:51:10;10.80;99.90
48988;DHT22;34799;51.440;-2.534;2023-10-31T04:53:37;11.00;99.90
48988;DHT22;34799;51.440;-2.534;2023-10-31T04:56:04;10.80;99.90
48988;DHT22;34799;51.440;-2.534;2023-10-31T04:58:31;10.80;99.90
48988;DHT22;34799;51.440;-2.534;2023-10-31T05:00:58;10.80;99.90
48988;DHT22;34799;51.440;-2.534;2023-10-31T05:03:27;10.70;99.90
48988;DHT22;34799;51.440;-2.534;2023-10-31T05:05:55;10.70;99.90
48988;DHT22;34799;51.440;-2.534;2023-10-31T05:08:23;10.60;99.90
48988;DHT22;34799;51.440;-2.534;2023-10-31T05:10:51;10.60;99.90
48988;DHT22;34799;51.440;-2.534;2023-10-31T05:13:19;10.60;99.90
48988;DHT22;34799;51.440;-2.534;2023-10-31T05:15:46;10.60;99.90
48988;DHT22;34799;51.440;-2.534;2023-10-31T05:18:14;10.50;99.90
48988;DHT22;34799;51.440;-2.534;2023-10-31T05:20:42;11.00;99.90
48988;DHT22;34799;51.440;-2.534;2023-10-31T05:23:11;10.50;99.90
48988;DHT22;34799;51.440;-2.534;2023-10-31T05:25:39;10.50;99.90
48988;DHT22;34799;51.440;-2.534;2023-10-31T05:28:07;10.50;99.90
48988;DHT22;34799;51.440;-2.534;2023-10-31T05:30:35;10.40;99.90
48988;DHT22;34799;51.440;-2.534;2023-10-31T05:33:04;10.40;99.90
48988;DHT22;34799;51.440;-2.534;2023-10-31T05:35:33;10.40;99.90
48988;DHT22;34799;51.440;-2.534;2023-10-31T05:38:01;10.40;99.90
48988;DHT22;34799;51.440;-2.534;2023-10-31T05:40:29;10.40;99.90
48988;DHT22;34799;51.440;-2.534;2023-10-31T05:42:57;10.40;99.90
48988;DHT22;34799;51.440;-2.534;2023-10-31T05:45:25;11.00;99.90
48988;DHT22;34799;51.440;-2.534;2023-10-31T05:47:53;10.40;99.90
48988;DHT22;34799;51.440;-2.534;2023-10-31T05:50:20;10.40;99.90
48988;DHT22;34799;51.440;-2.534;2023-10-31T05:52:47;10.60;99.90
48988;DHT22;34799;51.440;-2.534;2023-10-31T05:55:15;10.30;99.90
48988;DHT22;34799;51.440;-2.534;2023-10-31T05:57:42;10.60;99.90
48988;DHT22;34799;51.440;-2.534;2023-10-31T06:00:10;10.30;99.90
48988;DHT22;34799;51.440;-2.534;2023-10-31T06:02:40;10.30;99.90
48988;DHT22;34799;51.440;-2.534;2023-10-31T06:05:07;10.40;99.90
48988;DHT22;34799;51.440;-2.534;2023-10-31T06:07:34;10.30;99.90
48988;DHT22;34799;51.440;-2.534;2023-10-31T06:10:02;10.30;99.90
48988;DHT22;34799;51.440;-2.534;2023-10-31T06:12:30;10.30;99.90
48988;DHT22;34799;51.440;-2.534;2023-10-31T06:14:58;10.30;99.90
48988;DHT22;34799;51.440;-2.534;2023-10-31T06:17:26;10.30;99.90
48988;DHT22;34799;51.440;-2.534;2023-10-31T06:19:54;10.40;99.90
48988;DHT22;34799;51.440;-2.534;2023-10-31T06:22:21;10.30;99.90
48988;DHT22;34799;51.440;-2.534;2023-10-31T06:24:49;10.30;99.90
48988;DHT22;34799;51.440;-2.534;2023-10-31T06:27:17;10.60;99.90
48988;DHT22;34799;51.440;-2.534;2023-10-31T06:29:46;10.40;99.90
48988;DHT22;34799;51.440;-2.534;2023-10-31T06:32:15;10.50;99.90
48988;DHT22;34799;51.440;-2.534;2023-10-31T06:34:43;10.40;99.90
48988;DHT22;34799;51.440;-2.534;2023-10-31T06:37:12;10.40;99.90
48988;DHT22;34799;51.440;-2.534;2023-10-31T06:39:40;10.50;99.90
48988;DHT22;34799;51.440;-2.534;2023-10-31T06:42:08;10.40;99.90
48988;DHT22;34799;51.440;-2.534;2023-10-31T06:44:36;10.50;99.90
48988;DHT22;34799;51.440;-2.534;2023-10-31T06:47:05;10.50;99.90
48988;DHT22;34799;51.440;-2.534;2023-10-31T06:49:33;10.50;99.90
48988;DHT22;34799;51.440;-2.534;2023-10-31T06:52:00;10.50;99.90
48988;DHT22;34799;51.440;-2.534;2023-10-31T06:54:27;11.00;99.90
48988;DHT22;34799;51.440;-2.534;2023-10-31T06:56:54;10.40;99.90
48988;DHT22;34799;51.440;-2.534;2023-10-31T06:59:21;10.40;99.90
48988;DHT22;34799;51.440;-2.534;2023-10-31T07:01:48;10.40;99.90
48988;DHT22;34799;51.440;-2.534;2023-10-31T07:04:16;10.70;99.90
48988;DHT22;34799;51.440;-2.534;2023-10-31T07:06:44;10.80;99.90
48988;DHT22;34799;51.440;-2.534;2023-10-31T07:09:12;10.50;99.90
48988;DHT22;34799;51.440;-2.534;2023-10-31T07:11:40;10.90;99.90
48988;DHT22;34799;51.440;-2.534;2023-10-31T07:14:09;10.40;99.90
48988;DHT22;34799;51.440;-2.534;2023-10-31T07:16:36;10.90;99.90
48988;DHT22;34799;51.440;-2.534;2023-10-31T07:19:03;10.50;99.90
48988;DHT22;34799;51.440;-2.534;2023-10-31T07:21:30;10.50;99.90
48988;DHT22;34799;51.440;-2.534;2023-10-31T07:23:57;10.60;99.90
48988;DHT22;34799;51.440;-2.534;2023-10-31T07:26:24;10.80;99.90
48988;DHT22;34799;51.440;-2.534;2023-10-31T07:28:53;10.70;99.90
48988;DHT22;34799;51.440;-2.534;2023-10-31T07:31:21;10.70;99.90
48988;DHT22;34799;51.440;-2.534;2023-10-31T07:33:49;10.80;99.90
48988;DHT22;34799;51.440;-2.534;2023-10-31T07:36:16;10.90;99.90
48988;DHT22;34799;51.440;-2.534;2023-10-31T07:38:44;10.90;99.90
48988;DHT22;34799;51.440;-2.534;2023-10-31T07:41:12;10.90;99.90
48988;DHT22;34799;51.440;-2.534;2023-10-31T07:43:41;10.90;99.90
48988;DHT22;34799;51.440;-2.534;2023-10-31T07:46:09;11.00;99.90
48988;DHT22;34799;51.440;-2.534;2023-10-31T07:48:37;11.00;99.90
48988;DHT22;34799;51.440;-2.534;2023-10-31T07:51:06;11.00;99.90
48988;DHT22;34799;51.440;-2.534;2023-10-31T07:53:34;11.10;99.90
48988;DHT22;34799;51.440;-2.534;2023-10-31T07:56:02;11.10;99.90
48988;DHT22;34799;51.440;-2.534;2023-10-31T07:58:31;11.10;99.90
48988;DHT22;34799;51.440;-2.534;2023-10-31T08:00:59;11.20;99.90
48988;DHT22;34799;51.440;-2.534;2023-10-31T08:03:27;11.30;99.90
48988;DHT22;34799;51.440;-2.534;2023-10-31T08:05:55;11.50;99.90
48988;DHT22;34799;51.440;-2.534;2023-10-31T08:08:24;11.40;99.90
48988;DHT22;34799;51.440;-2.534;2023-10-31T08:10:52;11.40;99.90
48988;DHT22;34799;51.440;-2.534;2023-10-31T08:13:20;11.40;99.90
48988;DHT22;34799;51.440;-2.534;2023-10-31T08:15:49;11.40;99.90
48988;DHT22;34799;51.440;-2.534;2023-10-31T08:18:17;11.40;99.90
48988;DHT22;34799;51.440;-2.534;2023-10-31T08:20:45;11.50;99.90
48988;DHT22;34799;51.440;-2.534;2023-10-31T08:23:16;11.50;99.90
48988;DHT22;34799;51.440;-2.534;2023-10-31T08:25:44;11.50;99.90
48988;DHT22;34799;51.440;-2.534;2023-10-31T08:28:12;11.60;99.90
48988;DHT22;34799;51.440;-2.534;2023-10-31T08:30:41;11.60;99.90
48988;DHT22;34799;51.440;-2.534;2023-10-31T08:33:09;11.60;99.90
48988;DHT22;34799;51.440;-2.534;2023-10-31T08:35:38;11.70;99.90
48988;DHT22;34799;51.440;-2.534;2023-10-31T08:38:06;11.70;99.90
48988;DHT22;34799;51.440;-2.534;2023-10-31T08:40:34;11.70;99.90
48988;DHT22;34799;51.440;-2.534;2023-10-31T08:43:01;11.70;99.90
48988;DHT22;34799;51.440;-2.534;2023-10-31T08:45:32;11.70;99.90
48988;DHT22;34799;51.440;-2.534;2023-10-31T08:48:00;11.70;99.90
48988;DHT22;34799;51.440;-2.534;2023-10-31T08:50:28;11.90;99.90
48988;DHT22;34799;51.440;-2.534;2023-10-31T08:52:56;11.70;99.90
48988;DHT22;34799;51.440;-2.534;2023-10-31T08:55:25;11.70;99.90
48988;DHT22;34799;51.440;-2.534;2023-10-31T08:57:53;11.70;99.90
48988;DHT22;34799;51.440;-2.534;2023-10-31T09:00:21;11.80;99.90
48988;DHT22;34799;51.440;-2.534;2023-10-31T09:02:49;11.90;99.90
48988;DHT22;34799;51.440;-2.534;2023-10-31T09:05:17;12.00;99.90
48988;DHT22;34799;51.440;-2.534;2023-10-31T09:07:45;12.20;99.90
48988;DHT22;34799;51.440;-2.534;2023-10-31T09:10:13;12.30;99.90
48988;DHT22;34799;51.440;-2.534;2023-10-31T09:12:41;12.30;99.90
48988;DHT22;34799;51.440;-2.534;2023-10-31T09:15:10;12.50;99.90
48988;DHT22;34799;51.440;-2.534;2023-10-31T09:17:38;12.60;99.90
48988;DHT22;34799;51.440;-2.534;2023-10-31T09:20:07;12.80;99.90
48988;DHT22;34799;51.440;-2.534;2023-10-31T09:22:35;12.80;99.90
48988;DHT22;34799;51.440;-2.534;2023-10-31T09:25:03;12.80;99.90
48988;DHT22;34799;51.440;-2.534;2023-10-31T09:27:31;12.90;99.90
48988;DHT22;34799;51.440;-2.534;2023-10-31T09:29:58;13.00;99.90
48988;DHT22;34799;51.440;-2.534;2023-10-31T09:32:25;13.10;99.90
48988;DHT22;34799;51.440;-2.534;2023-10-31T09:34:52;13.10;99.90
48988;DHT22;34799;51.440;-2.534;2023-10-31T09:37:20;13.30;99.90
48988;DHT22;34799;51.440;-2.534;2023-10-31T09:39:47;13.40;99.90
48988;DHT22;34799;51.440;-2.534;2023-10-31T09:42:15;13.50;99.90
48988;DHT22;34799;51.440;-2.534;2023-10-31T09:44:43;13.60;99.90
48988;DHT22;34799;51.440;-2.534;2023-10-31T09:47:15;13.70;99.90
48988;DHT22;34799;51.440;-2.534;2023-10-31T09:49:43;13.70;99.90
48988;DHT22;34799;51.440;-2.534;2023-10-31T09:52:10;13.80;99.90
48988;DHT22;34799;51.440;-2.534;2023-10-31T09:54:38;13.90;99.90
48988;DHT22;34799;51.440;-2.534;2023-10-31T09:57:06;14.00;99.90
48988;DHT22;34799;51.440;-2.534;2023-10-31T09:59:34;14.20;99.90
48988;DHT22;34799;51.440;-2.534;2023-10-31T10:02:02;14.30;99.90
48988;DHT22;34799;51.440;-2.534;2023-10-31T10:04:31;14.30;99.90
48988;DHT22;34799;51.440;-2.534;2023-10-31T10:07:00;14.30;99.90
48988;DHT22;34799;51.440;-2.534;2023-10-31T10:09:29;14.30;99.90
48988;DHT22;34799;51.440;-2.534;2023-10-31T10:12:01;14.30;99.90
48988;DHT22;34799;51.440;-2.534;2023-10-31T10:14:29;14.40;99.90
48988;DHT22;34799;51.440;-2.534;2023-10-31T10:16:58;14.40;99.90
48988;DHT22;34799;51.440;-2.534;2023-10-31T10:19:26;14.50;99.90
48988;DHT22;34799;51.440;-2.534;2023-10-31T10:21:55;14.50;99.90
48988;DHT22;34799;51.440;-2.534;2023-10-31T10:24:23;14.40;99.90
48988;DHT22;34799;51.440;-2.534;2023-10-31T10:26:52;14.40;99.90
48988;DHT22;34799;51.440;-2.534;2023-10-31T10:29:19;14.40;99.90
48988;DHT22;34799;51.440;-2.534;2023-10-31T10:31:46;14.30;99.90
48988;DHT22;34799;51.440;-2.534;2023-10-31T10:34:16;14.30;99.90
48988;DHT22;34799;51.440;-2.534;2023-10-31T10:36:48;14.30;99.90
48988;DHT22;34799;51.440;-2.534;2023-10-31T10:39:20;14.40;99.90
48988;DHT22;34799;51.440;-2.534;2023-10-31T10:41:53;14.50;99.90
48988;DHT22;34799;51.440;-2.534;2023-10-31T10:44:34;14.40;99.90
48988;DHT22;34799;51.440;-2.534;2023-10-31T10:47:06;14.40;99.90
48988;DHT22;34799;51.440;-2.534;2023-10-31T10:49:35;14.30;99.90
48988;DHT22;34799;51.440;-2.534;2023-10-31T10:57:52;14.40;99.90
48988;DHT22;34799;51.440;-2.534;2023-10-31T11:00:23;14.50;99.90
48988;DHT22;34799;51.440;-2.534;2023-10-31T11:02:53;14.50;99.90
48988;DHT22;34799;51.440;-2.534;2023-10-31T11:05:20;14.60;99.90
48988;DHT22;34799;51.440;-2.534;2023-10-31T11:07:48;14.60;99.90
48988;DHT22;34799;51.440;-2.534;2023-10-31T11:10:17;14.60;99.90
48988;DHT22;34799;51.440;-2.534;2023-10-31T11:12:45;14.50;99.90
48988;DHT22;34799;51.440;-2.534;2023-10-31T11:15:14;14.60;99.90
48988;DHT22;34799;51.440;-2.534;2023-10-31T11:17:44;14.60;99.90
48988;DHT22;34799;51.440;-2.534;2023-10-31T11:20:14;14.60;99.90
48988;DHT22;34799;51.440;-2.534;2023-10-31T11:22:46;14.50;99.90
48988;DHT22;34799;51.440;-2.534;2023-10-31T11:25:19;14.60;99.90
48988;DHT22;34799;51.440;-2.534;2023-10-31T11:27:50;14.60;99.90
48988;DHT22;34799;51.440;-2.534;2023-10-31T11:30:26;14.60;99.90
48988;DHT22;34799;51.440;-2.534;2023-10-31T11:32:57;14.70;99.90
48988;DHT22;34799;51.440;-2.534;2023-10-31T11:35:25;14.70;99.90
48988;DHT22;34799;51.440;-2.534;2023-10-31T11:38:03;14.70;99.90
48988;DHT22;34799;51.440;-2.534;2023-10-31T11:43:11;14.70;99.90
48988;DHT22;34799;51.440;-2.534;2023-10-31T11:45:43;14.70;99.90
48988;DHT22;34799;51.440;-2.534;2023-10-31T11:48:14;14.70;99.90
48988;DHT22;34799;51.440;-2.534;2023-10-31T11:50:42;14.60;99.90
48988;DHT22;34799;51.440;-2.534;2023-10-31T11:53:14;14.60;99.90
48988;DHT22;34799;51.440;-2.534;2023-10-31T11:55:45;14.60;99.90
48988;DHT22;34799;51.440;-2.534;2023-10-31T12:00:42;14.50;99.90
48988;DHT22;34799;51.440;-2.534;2023-10-31T12:03:09;14.60;99.90
48988;DHT22;34799;51.440;-2.534;2023-10-31T12:05:37;14.70;99.90
48988;DHT22;34799;51.440;-2.534;2023-10-31T12:08:04;14.80;99.90
48988;DHT22;34799;51.440;-2.534;2023-10-31T12:10:31;15.00;99.90
48988;DHT22;34799;51.440;-2.534;2023-10-31T12:12:58;15.20;99.90
48988;DHT22;34799;51.440;-2.534;2023-10-31T12:15:26;15.20;99.90
48988;DHT22;34799;51.440;-2.534;2023-10-31T12:17:58;15.20;99.90
48988;DHT22;34799;51.440;-2.534;2023-10-31T12:20:25;15.10;99.90
48988;DHT22;34799;51.440;-2.534;2023-10-31T12:23:03;15.10;99.90
48988;DHT22;34799;51.440;-2.534;2023-10-31T12:25:30;15.10;99.90
48988;DHT22;34799;51.440;-2.534;2023-10-31T12:28:02;15.10;99.90
48988;DHT22;34799;51.440;-2.534;2023-10-31T12:30:29;15.00;99.90
48988;DHT22;34799;51.440;-2.534;2023-10-31T12:32:56;14.90;99.90
48988;DHT22;34799;51.440;-2.534;2023-10-31T12:35:26;15.00;99.90
48988;DHT22;34799;51.440;-2.534;2023-10-31T12:37:53;14.90;99.90
48988;DHT22;34799;51.440;-2.534;2023-10-31T12:40:22;14.90;99.90
48988;DHT22;34799;51.440;-2.534;2023-10-31T12:42:49;14.80;99.90
48988;DHT22;34799;51.440;-2.534;2023-10-31T12:45:18;14.80;99.90
48988;DHT22;34799;51.440;-2.534;2023-10-31T12:47:59;14.80;99.90
48988;DHT22;34799;51.440;-2.534;2023-10-31T12:50:29;14.90;99.90
48988;DHT22;34799;51.440;-2.534;2023-10-31T12:52:56;14.90;99.90
48988;DHT22;34799;51.440;-2.534;2023-10-31T12:55:28;14.80;99.90
48988;DHT22;34799;51.440;-2.534;2023-10-31T12:57:57;14.80;99.90
48988;DHT22;34799;51.440;-2.534;2023-10-31T13:00:35;14.80;99.90
48988;DHT22;34799;51.440;-2.534;2023-10-31T13:03:04;14.70;99.90
48988;DHT22;34799;51.440;-2.534;2023-10-31T13:05:32;14.50;99.90
48988;DHT22;34799;51.440;-2.534;2023-10-31T13:08:00;14.50;99.90
48988;DHT22;34799;51.440;-2.534;2023-10-31T13:10:30;14.50;99.90
48988;DHT22;34799;51.440;-2.534;2023-10-31T13:13:00;14.50;99.90
48988;DHT22;34799;51.440;-2.534;2023-10-31T13:15:28;14.40;99.90
48988;DHT22;34799;51.440;-2.534;2023-10-31T13:17:55;14.40;99.90
48988;DHT22;34799;51.440;-2.534;2023-10-31T13:20:24;14.30;99.90
48988;DHT22;34799;51.440;-2.534;2023-10-31T13:22:51;14.30;99.90
48988;DHT22;34799;51.440;-2.534;2023-10-31T13:25:18;14.30;99.90
48988;DHT22;34799;51.440;-2.534;2023-10-31T13:27:45;14.20;99.90
48988;DHT22;34799;51.440;-2.534;2023-10-31T13:30:17;14.30;99.90
48988;DHT22;34799;51.440;-2.534;2023-10-31T13:32:45;14.30;99.90
48988;DHT22;34799;51.440;-2.534;2023-10-31T13:35:12;14.30;99.90
48988;DHT22;34799;51.440;-2.534;2023-10-31T13:37:41;14.20;99.90
48988;DHT22;34799;51.440;-2.534;2023-10-31T13:40:09;14.30;99.90
48988;DHT22;34799;51.440;-2.534;2023-10-31T13:42:37;14.30;99.90
48988;DHT22;34799;51.440;-2.534;2023-10-31T13:45:06;14.40;99.90
48988;DHT22;34799;51.440;-2.534;2023-10-31T13:47:34;14.50;99.90
48988;DHT22;34799;51.440;-2.534;2023-10-31T13:50:02;14.50;99.90
48988;DHT22;34799;51.440;-2.534;2023-10-31T13:52:30;14.50;99.90
48988;DHT22;34799;51.440;-2.534;2023-10-31T13:54:59;14.50;99.90
48988;DHT22;34799;51.440;-2.534;2023-10-31T13:57:27;14.60;99.90
48988;DHT22;34799;51.440;-2.534;2023-10-31T13:59:55;14.60;99.90
48988;DHT22;34799;51.440;-2.534;2023-10-31T14:02:23;14.70;99.90
48988;DHT22;34799;51.440;-2.534;2023-10-31T14:04:51;14.60;99.90
48988;DHT22;34799;51.440;-2.534;2023-10-31T14:07:22;14.60;99.90
48988;DHT22;34799;51.440;-2.534;2023-10-31T14:09:52;14.70;99.90
48988;DHT22;34799;51.440;-2.534;2023-10-31T14:12:19;14.60;99.90
48988;DHT22;34799;51.440;-2.534;2023-10-31T14:14:47;14.60;99.90
48988;DHT22;34799;51.440;-2.534;2023-10-31T14:17:16;14.60;99.90
48988;DHT22;34799;51.440;-2.534;2023-10-31T14:19:44;14.60;99.90
48988;DHT22;34799;51.440;-2.534;2023-10-31T14:22:12;14.70;99.90
48988;DHT22;34799;51.440;-2.534;2023-10-31T14:24:40;14.80;99.90
48988;DHT22;34799;51.440;-2.534;2023-10-31T14:27:08;14.70;99.90
48988;DHT22;34799;51.440;-2.534;2023-10-31T14:29:36;14.80;99.90
48988;DHT22;34799;51.440;-2.534;2023-10-31T14:32:07;14.70;99.90
48988;DHT22;34799;51.440;-2.534;2023-10-31T14:34:35;14.70;99.90
48988;DHT22;34799;51.440;-2.534;2023-10-31T14:37:02;14.70;99.90
48988;DHT22;34799;51.440;-2.534;2023-10-31T14:39:30;14.60;99.90
48988;DHT22;34799;51.440;-2.534;2023-10-31T14:41:58;14.60;99.90
48988;DHT22;34799;51.440;-2.534;2023-10-31T14:44:26;14.60;99.90
48988;DHT22;34799;51.440;-2.534;2023-10-31T14:46:54;14.60;99.90
48988;DHT22;34799;51.440;-2.534;2023-10-31T14:49:23;14.70;99.90
48988;DHT22;34799;51.440;-2.534;2023-10-31T14:51:51;14.70;99.90
48988;DHT22;34799;51.440;-2.534;2023-10-31T14:54:19;14.70;99.90
48988;DHT22;34799;51.440;-2.534;2023-10-31T14:56:48;14.70;99.90
48988;DHT22;34799;51.440;-2.534;2023-10-31T14:59:16;14.80;99.90
48988;DHT22;34799;51.440;-2.534;2023-10-31T15:01:44;14.80;99.90
48988;DHT22;34799;51.440;-2.534;2023-10-31T15:04:12;14.80;99.90
48988;DHT22;34799;51.440;-2.534;2023-10-31T15:06:40;14.80;99.90
48988;DHT22;34799;51.440;-2.534;2023-10-31T15:09:08;14.90;99.90
48988;DHT22;34799;51.440;-2.534;2023-10-31T15:11:37;14.90;99.90
48988;DHT22;34799;51.440;-2.534;2023-10-31T15:14:05;14.90;99.90
48988;DHT22;34799;51.440;-2.534;2023-10-31T15:16:33;14.90;99.90
48988;DHT22;34799;51.440;-2.534;2023-10-31T15:19:02;14.90;99.90
48988;DHT22;34799;51.440;-2.534;2023-10-31T15:21:30;14.80;99.90
48988;DHT22;34799;51.440;-2.534;2023-10-31T15:23:58;14.80;99.90
48988;DHT22;34799;51.440;-2.534;2023-10-31T15:26:26;14.80;99.90
48988;DHT22;34799;51.440;-2.534;2023-10-31T15:28:55;14.80;99.90
48988;DHT22;34799;51.440;-2.534;2023-10-31T15:31:23;14.70;99.90
48988;DHT22;34799;51.440;-2.534;2023-10-31T15:33:51;14.70;99.90